createdAt,value
2022-10-26T00:01:36.341Z,80.29
2022-10-26T00:04:04.372Z,81.24
2022-10-26T00:06:32.214Z,80.73
2022-10-26T00:09:00.112Z,80.95
2022-10-26T00:11:29.334Z,81.83
2022-10-26T00:13:57.252Z,81.50
2022-10-26T00:16:27.370Z,81.89
2022-10-26T00:18:55.727Z,81.30
2022-10-26T00:21:23.593Z,81.00
2022-10-26T00:23:51.454Z,80.98
2022-10-26T00:26:19.536Z,81.22
2022-10-26T00:28:48.903Z,80.89
2022-10-26T00:31:17.527Z,80.67
2022-10-26T00:33:45.427Z,81.03
2022-10-26T00:36:16.675Z,80.47
2022-10-26T00:38:49.051Z,80.61
2022-10-26T00:41:17.385Z,80.83
2022-10-26T00:43:45.404Z,80.88
2022-10-26T00:46:18.448Z,80.87
2022-10-26T00:48:51.126Z,81.15
2022-10-26T00:51:26.525Z,80.94
2022-10-26T00:53:56.102Z,81.35
2022-10-26T00:56:25.053Z,81.77
2022-10-26T00:58:53.634Z,81.08
2022-10-26T01:01:22.963Z,80.51
2022-10-26T01:03:50.944Z,80.43
2022-10-26T01:06:19.909Z,79.59
2022-10-26T01:08:48.346Z,80.58
2022-10-26T01:11:17.068Z,80.26
2022-10-26T01:13:47.193Z,80.45
2022-10-26T01:16:42.784Z,80.73
2022-10-26T01:19:52.804Z,80.90
2022-10-26T01:22:23.476Z,80.20
2022-10-26T01:25:09.660Z,79.58
2022-10-26T01:27:39.899Z,80.33
2022-10-26T01:30:33.034Z,80.03
2022-10-26T01:33:14.421Z,80.86
2022-10-26T01:35:52.035Z,80.29
2022-10-26T01:38:28.244Z,80.51
2022-10-26T01:41:04.012Z,80.54
2022-10-26T01:43:36.449Z,81.07
2022-10-26T01:46:08.163Z,80.41
2022-10-26T01:48:37.510Z,80.85
2022-10-26T01:51:07.105Z,79.32
2022-10-26T01:53:34.987Z,80.97
2022-10-26T01:56:03.453Z,80.74
2022-10-26T01:58:59.602Z,80.65
2022-10-26T02:01:55.066Z,81.01
2022-10-26T02:04:36.434Z,80.73
2022-10-26T02:07:11.288Z,80.16
2022-10-26T02:09:47.243Z,80.47
2022-10-26T02:12:24.306Z,81.45
2022-10-26T02:15:01.155Z,81.07
2022-10-26T02:17:36.575Z,81.63
2022-10-26T02:20:06.581Z,81.89
2022-10-26T02:22:37.951Z,81.17
2022-10-26T02:25:10.229Z,81.69
2022-10-26T02:27:43.621Z,80.61
2022-10-26T02:30:12.246Z,80.60
2022-10-26T02:32:46.187Z,79.93
2022-10-26T02:35:16.718Z,80.30
2022-10-26T02:37:47.905Z,80.87
2022-10-26T02:40:21.519Z,80.61
2022-10-26T02:42:53.193Z,80.67
2022-10-26T02:45:26.681Z,81.40
2022-10-26T02:47:57.024Z,81.99
2022-10-26T02:50:31.480Z,81.82
2022-10-26T02:53:07.748Z,81.75
2022-10-26T02:55:40.381Z,82.26
2022-10-26T02:58:16.710Z,82.60
2022-10-26T03:00:45.730Z,83.25
2022-10-26T03:03:15.709Z,82.86
2022-10-26T03:05:44.010Z,82.69
2022-10-26T03:08:12.168Z,82.60
2022-10-26T03:10:43.169Z,83.31
2022-10-26T03:13:11.959Z,82.19
2022-10-26T03:15:40.188Z,83.22
2022-10-26T03:18:08.643Z,83.06
2022-10-26T03:20:37.886Z,82.06
2022-10-26T03:23:05.743Z,82.62
2022-10-26T03:25:33.597Z,83.24
2022-10-26T03:28:02.593Z,83.70
2022-10-26T03:30:31.750Z,83.08
2022-10-26T03:32:59.749Z,83.27
2022-10-26T03:35:27.751Z,82.91
2022-10-26T03:37:57.004Z,82.96
2022-10-26T03:40:25.161Z,82.89
2022-10-26T03:42:53.317Z,82.91
2022-10-26T03:45:21.489Z,82.98
2022-10-26T03:47:50.519Z,83.37
2022-10-26T03:50:20.158Z,83.18
2022-10-26T03:52:48.849Z,83.07
2022-10-26T03:55:19.381Z,82.25
2022-10-26T03:57:47.403Z,82.72
2022-10-26T04:00:17.512Z,83.39
2022-10-26T04:02:48.588Z,81.86
2022-10-26T04:05:17.153Z,83.48
2022-10-26T04:07:45.057Z,82.32
2022-10-26T04:10:12.936Z,82.14
2022-10-26T04:12:42.155Z,82.41
2022-10-26T04:15:10.781Z,82.36
2022-10-26T04:17:38.728Z,81.73
2022-10-26T04:20:07.603Z,82.37
2022-10-26T04:22:36.475Z,82.97
2022-10-26T04:25:04.371Z,83.37
2022-10-26T04:27:32.404Z,83.56
2022-10-26T04:30:01.628Z,83.29
2022-10-26T04:32:29.465Z,84.14
2022-10-26T04:34:57.285Z,84.92
2022-10-26T04:37:25.110Z,85.13
2022-10-26T04:39:53.004Z,83.78
2022-10-26T04:42:21.145Z,84.09
2022-10-26T04:44:49.069Z,84.51
2022-10-26T04:47:18.263Z,83.85
2022-10-26T04:49:46.088Z,84.11
2022-10-26T04:52:13.931Z,83.26
2022-10-26T04:54:41.775Z,84.07
2022-10-26T04:57:09.658Z,83.27
2022-10-26T04:59:37.447Z,83.69
2022-10-26T05:02:05.426Z,84.03
2022-10-26T05:04:34.766Z,83.51
2022-10-26T05:07:02.811Z,83.75
2022-10-26T05:09:30.655Z,84.19
2022-10-26T05:11:58.512Z,84.26
2022-10-26T05:14:26.325Z,83.74
2022-10-26T05:16:55.596Z,83.58
2022-10-26T05:19:23.466Z,83.57
2022-10-26T05:21:53.361Z,83.04
2022-10-26T05:24:21.279Z,82.76
2022-10-26T05:26:49.183Z,83.14
2022-10-26T05:29:17.082Z,83.54
2022-10-26T05:31:44.941Z,84.06
2022-10-26T05:34:12.802Z,83.51
2022-10-26T05:36:40.728Z,83.45
2022-10-26T05:39:09.987Z,82.77
2022-10-26T05:41:37.873Z,83.35
2022-10-26T05:44:05.911Z,81.99
2022-10-26T05:46:33.809Z,83.40
2022-10-26T05:49:01.742Z,83.33
2022-10-26T05:51:29.644Z,82.74
2022-10-26T05:53:57.630Z,82.01
2022-10-26T05:56:36.426Z,83.21
2022-10-26T05:59:05.375Z,82.86
2022-10-26T06:01:45.037Z,81.85
2022-10-26T06:04:27.369Z,82.54
2022-10-26T06:06:56.382Z,81.69
2022-10-26T06:09:24.869Z,82.30
2022-10-26T06:11:54.904Z,82.08
2022-10-26T06:14:23.321Z,81.94
2022-10-26T06:17:04.822Z,81.53
2022-10-26T06:19:47.358Z,81.23
2022-10-26T06:22:33.607Z,81.55
2022-10-26T06:25:15.992Z,81.31
2022-10-26T06:27:52.474Z,81.45
2022-10-26T06:30:23.344Z,81.89
2022-10-26T06:33:01.159Z,81.23
2022-10-26T06:35:41.609Z,81.92
2022-10-26T06:38:14.803Z,81.65
2022-10-26T06:40:46.248Z,80.82
2022-10-26T06:43:25.039Z,81.34
2022-10-26T06:46:05.036Z,81.54
2022-10-26T06:48:44.959Z,80.73
2022-10-26T06:51:16.532Z,81.49
2022-10-26T06:53:53.632Z,81.04
2022-10-26T06:56:24.210Z,81.02
2022-10-26T06:58:57.093Z,80.90
2022-10-26T07:01:25.045Z,80.79
2022-10-26T07:03:52.987Z,80.65
2022-10-26T07:06:20.889Z,81.12
2022-10-26T07:08:49.265Z,81.42
2022-10-26T07:11:17.130Z,80.02
2022-10-26T07:13:44.927Z,80.85
2022-10-26T07:16:14.244Z,80.58
2022-10-26T07:18:42.110Z,80.18
2022-10-26T07:21:10.513Z,81.22
2022-10-26T07:23:38.721Z,80.25
2022-10-26T07:26:06.878Z,79.75
2022-10-26T07:28:36.489Z,80.83
2022-10-26T07:31:05.555Z,80.67
2022-10-26T07:33:36.942Z,80.12
2022-10-26T07:36:10.907Z,80.22
2022-10-26T07:38:39.321Z,80.99
2022-10-26T07:41:07.750Z,80.00
2022-10-26T07:43:35.575Z,80.74
2022-10-26T07:46:03.648Z,80.79
2022-10-26T07:48:31.629Z,80.03
2022-10-26T07:51:03.065Z,80.07
2022-10-26T07:53:31.458Z,80.21
2022-10-26T07:55:59.369Z,80.04
2022-10-26T07:58:27.879Z,79.62
2022-10-26T08:00:56.918Z,79.31
2022-10-26T08:03:25.108Z,78.93
2022-10-26T08:05:55.768Z,78.81
2022-10-26T08:08:25.049Z,78.54
2022-10-26T08:10:53.095Z,78.90
2022-10-26T08:13:20.968Z,78.14
2022-10-26T08:15:48.828Z,78.72
2022-10-26T08:18:17.035Z,79.36
2022-10-26T08:20:45.365Z,78.41
2022-10-26T08:23:13.405Z,77.85
2022-10-26T08:25:42.736Z,78.13
2022-10-26T08:28:10.728Z,78.78
2022-10-26T08:30:38.821Z,78.48
2022-10-26T08:33:08.747Z,78.57
2022-10-26T08:35:36.793Z,77.88
2022-10-26T08:38:04.766Z,76.90
2022-10-26T08:40:35.688Z,76.47
2022-10-26T08:43:11.304Z,76.41
2022-10-26T08:45:42.465Z,75.75
2022-10-26T08:48:16.111Z,75.47
2022-10-26T08:50:50.531Z,75.25
2022-10-26T08:53:25.689Z,77.44
2022-10-26T08:55:57.615Z,75.84
2022-10-26T08:58:31.461Z,77.03
2022-10-26T09:01:00.031Z,76.31
2022-10-26T09:03:28.074Z,74.82
2022-10-26T09:06:14.438Z,74.29
2022-10-26T09:08:55.837Z,74.02
2022-10-26T09:11:37.554Z,73.81
2022-10-26T09:14:13.742Z,74.80
2022-10-26T09:16:52.144Z,73.10
2022-10-26T09:19:36.813Z,73.45
2022-10-26T09:22:13.181Z,71.71
2022-10-26T09:24:48.603Z,70.90
2022-10-26T09:27:22.712Z,70.76
2022-10-26T09:29:53.281Z,70.45
2022-10-26T09:32:22.542Z,69.04
2022-10-26T09:34:53.494Z,69.15
2022-10-26T09:37:25.393Z,67.74
2022-10-26T09:40:00.310Z,66.26
2022-10-26T09:42:35.941Z,66.02
2022-10-26T09:45:13.397Z,66.13
2022-10-26T09:47:46.161Z,65.90
2022-10-26T09:50:23.680Z,66.68
2022-10-26T09:52:51.741Z,64.80
2022-10-26T09:55:20.990Z,64.55
2022-10-26T09:57:51.482Z,63.80
2022-10-26T10:00:23.333Z,61.82
2022-10-26T10:02:53.163Z,62.13
2022-10-26T10:05:49.666Z,63.71
2022-10-26T10:08:19.149Z,60.75
2022-10-26T10:11:03.163Z,60.39
2022-10-26T10:13:32.939Z,61.59
2022-10-26T10:16:07.985Z,61.35
2022-10-26T10:18:36.562Z,59.06
2022-10-26T10:21:05.983Z,58.90
2022-10-26T10:23:35.887Z,59.05
2022-10-26T10:26:07.248Z,59.48
2022-10-26T10:28:36.064Z,59.73
2022-10-26T10:31:19.302Z,58.80
2022-10-26T10:33:49.238Z,59.25
2022-10-26T10:36:19.852Z,58.95
2022-10-26T10:38:49.578Z,58.04
2022-10-26T10:41:25.808Z,57.31
2022-10-26T10:43:57.019Z,57.49
2022-10-26T10:46:29.179Z,59.47
2022-10-26T10:49:04.686Z,57.73
2022-10-26T10:51:39.589Z,58.55
2022-10-26T10:54:19.159Z,56.05
2022-10-26T10:56:50.899Z,55.04
2022-10-26T10:59:35.276Z,54.75
2022-10-26T11:02:55.665Z,56.69
2022-10-26T11:05:34.576Z,55.21
2022-10-26T11:08:08.746Z,54.44
2022-10-26T11:10:40.277Z,54.48
2022-10-26T11:13:16.603Z,53.37
2022-10-26T11:15:47.629Z,54.07
2022-10-26T11:18:20.189Z,52.51
2022-10-26T11:20:52.195Z,50.12
2022-10-26T11:23:27.141Z,49.05
2022-10-26T11:26:00.214Z,50.17
2022-10-26T11:28:38.517Z,49.75
2022-10-26T11:31:12.495Z,51.04
2022-10-26T11:33:46.855Z,49.23
2022-10-26T11:36:21.797Z,49.56
2022-10-26T11:38:57.712Z,51.21
2022-10-26T11:41:30.576Z,48.92
2022-10-26T11:44:05.114Z,48.37
2022-10-26T11:46:37.937Z,49.71
2022-10-26T11:49:14.306Z,48.98
2022-10-26T11:51:49.952Z,48.04
2022-10-26T11:54:22.714Z,49.49
2022-10-26T11:56:54.929Z,49.08
2022-10-26T11:59:27.964Z,48.87
2022-10-26T12:02:05.412Z,50.48
2022-10-26T12:04:38.281Z,49.72
2022-10-26T12:07:15.308Z,51.46
2022-10-26T12:09:45.652Z,48.98
2022-10-26T12:12:21.980Z,47.68
2022-10-26T12:14:57.888Z,48.32
2022-10-26T12:17:30.923Z,51.24
2022-10-26T12:20:05.455Z,52.28
2022-10-26T12:22:36.052Z,51.10
2022-10-26T12:25:14.638Z,52.84
2022-10-26T12:27:55.066Z,51.34
2022-10-26T12:30:34.536Z,51.83
2022-10-26T12:33:05.279Z,51.60
2022-10-26T12:35:37.454Z,52.93
2022-10-26T12:38:43.952Z,53.67
2022-10-26T12:41:23.712Z,52.61
2022-10-26T12:43:55.913Z,52.93
2022-10-26T12:46:42.449Z,52.74
2022-10-26T12:49:49.311Z,53.46
2022-10-26T12:52:32.582Z,54.31
2022-10-26T12:55:25.128Z,53.02
2022-10-26T12:58:04.565Z,52.52
2022-10-26T13:03:24.863Z,53.51
2022-10-26T13:06:18.157Z,52.71
2022-10-26T13:08:55.148Z,53.45
2022-10-26T13:11:31.561Z,52.15
2022-10-26T13:14:02.875Z,53.62
2022-10-26T13:16:32.012Z,53.75
2022-10-26T13:19:01.429Z,54.08
2022-10-26T13:21:29.502Z,56.12
2022-10-26T13:24:05.306Z,54.07
2022-10-26T13:26:34.291Z,53.76
2022-10-26T13:29:04.145Z,54.28
2022-10-26T13:31:54.864Z,55.57
2022-10-26T13:34:29.260Z,54.65
2022-10-26T13:37:06.183Z,55.17
2022-10-26T13:39:38.993Z,54.42
2022-10-26T13:42:08.698Z,55.37
2022-10-26T13:44:40.348Z,55.65
2022-10-26T13:47:11.835Z,55.74
2022-10-26T13:49:41.616Z,55.48
2022-10-26T13:52:17.060Z,55.01
2022-10-26T13:54:50.154Z,55.11
2022-10-26T13:57:21.426Z,54.60
2022-10-26T13:59:49.344Z,54.59
2022-10-26T14:02:20.625Z,54.37
2022-10-26T14:04:52.469Z,54.32
2022-10-26T14:07:23.667Z,54.31
2022-10-26T14:09:55.383Z,54.37
2022-10-26T14:12:24.208Z,54.55
2022-10-26T14:14:54.405Z,54.51
2022-10-26T14:17:25.593Z,54.68
2022-10-26T14:19:54.300Z,54.43
2022-10-26T14:22:24.253Z,54.41
2022-10-26T14:27:33.766Z,54.79
2022-10-26T14:30:21.496Z,54.76
2022-10-26T14:32:50.932Z,55.20
2022-10-26T14:35:21.395Z,54.68
2022-10-26T14:37:53.280Z,55.77
2022-10-26T14:40:26.096Z,54.98
2022-10-26T14:42:56.782Z,56.25
2022-10-26T14:45:47.562Z,57.54
2022-10-26T14:48:23.880Z,57.76
2022-10-26T14:51:10.521Z,57.05
2022-10-26T14:53:40.444Z,57.10
2022-10-26T14:56:23.624Z,58.62
2022-10-26T14:58:52.227Z,57.69
2022-10-26T15:01:36.291Z,57.76
2022-10-26T15:04:06.448Z,57.88
2022-10-26T15:06:43.440Z,57.43
2022-10-26T15:09:32.828Z,57.66
2022-10-26T15:12:03.928Z,57.98
2022-10-26T15:14:32.391Z,58.74
2022-10-26T15:17:00.948Z,58.89
2022-10-26T15:19:29.446Z,58.33
2022-10-26T15:21:57.663Z,58.51
2022-10-26T15:24:38.951Z,58.90
2022-10-26T15:27:17.014Z,58.74
2022-10-26T15:29:46.953Z,59.62
2022-10-26T15:32:32.781Z,60.27
2022-10-26T15:35:15.104Z,59.97
2022-10-26T15:37:43.343Z,61.79
2022-10-26T15:40:12.231Z,61.33
2022-10-26T15:42:42.849Z,60.95
2022-10-26T15:45:18.593Z,61.00
2022-10-26T15:47:47.218Z,61.49
2022-10-26T15:50:15.803Z,62.69
2022-10-26T15:52:46.689Z,62.82
2022-10-26T15:55:17.087Z,63.45
2022-10-26T15:57:46.493Z,62.89
2022-10-26T16:00:19.151Z,63.07
2022-10-26T16:02:47.434Z,63.58
2022-10-26T16:05:17.042Z,63.98
2022-10-26T16:07:48.145Z,63.91
2022-10-26T16:10:21.279Z,64.69
2022-10-26T16:12:50.713Z,64.64
2022-10-26T16:15:21.054Z,65.26
2022-10-26T16:17:50.066Z,65.36
2022-10-26T16:20:22.698Z,64.68
2022-10-26T16:22:51.721Z,65.59
2022-10-26T16:25:22.740Z,65.90
2022-10-26T16:27:52.815Z,65.35
2022-10-26T16:30:22.380Z,66.99
2022-10-26T16:32:51.833Z,66.26
2022-10-26T16:35:19.856Z,66.26
2022-10-26T16:37:47.696Z,67.12
2022-10-26T16:40:15.565Z,66.47
2022-10-26T16:42:44.523Z,65.80
2022-10-26T16:45:14.465Z,66.08
2022-10-26T16:47:42.331Z,66.05
2022-10-26T16:50:11.967Z,66.72
2022-10-26T16:52:40.608Z,67.29
2022-10-26T16:55:10.031Z,66.37
2022-10-26T16:57:38.677Z,67.26
2022-10-26T17:00:08.378Z,67.42
2022-10-26T17:02:37.716Z,67.33
2022-10-26T17:05:07.566Z,68.26
2022-10-26T17:07:35.779Z,68.09
2022-10-26T17:10:03.597Z,68.33
2022-10-26T17:12:31.679Z,68.29
2022-10-26T17:15:00.614Z,68.34
2022-10-26T17:17:28.544Z,67.99
2022-10-26T17:19:58.096Z,68.14
2022-10-26T17:22:25.897Z,67.80
2022-10-26T17:24:53.734Z,68.46
2022-10-26T17:27:22.999Z,68.28
2022-10-26T17:29:50.844Z,67.85
2022-10-26T17:32:18.663Z,69.43
2022-10-26T17:34:46.531Z,68.67
2022-10-26T17:37:15.757Z,69.32
2022-10-26T17:39:43.629Z,69.33
2022-10-26T17:42:11.447Z,69.40
2022-10-26T17:44:39.959Z,69.48
2022-10-26T17:47:08.725Z,68.27
2022-10-26T17:49:36.603Z,69.13
2022-10-26T17:52:05.929Z,68.29
2022-10-26T17:54:35.202Z,69.05
2022-10-26T17:57:03.264Z,69.46
2022-10-26T17:59:31.113Z,69.78
2022-10-26T18:01:59.000Z,70.15
2022-10-26T18:04:26.988Z,69.83
2022-10-26T18:06:54.856Z,70.00
2022-10-26T18:09:22.908Z,70.28
2022-10-26T18:11:54.966Z,69.60
2022-10-26T18:14:24.129Z,69.89
2022-10-26T18:16:52.126Z,70.24
2022-10-26T18:19:20.224Z,69.97
2022-10-26T18:21:48.295Z,69.54
2022-10-26T18:24:16.387Z,69.99
2022-10-26T18:26:44.462Z,69.72
2022-10-26T18:29:14.448Z,69.98
2022-10-26T18:31:42.427Z,71.19
2022-10-26T18:34:11.437Z,69.81
2022-10-26T18:36:39.257Z,70.41
2022-10-26T18:39:07.676Z,70.66
2022-10-26T18:41:35.580Z,71.08
2022-10-26T18:44:03.422Z,71.23
2022-10-26T18:46:39.655Z,70.87
2022-10-26T18:49:09.640Z,71.04
2022-10-26T18:51:37.462Z,70.45
2022-10-26T18:54:05.868Z,71.11
2022-10-26T18:56:33.673Z,70.67
2022-10-26T18:59:02.434Z,71.06
2022-10-26T19:01:33.354Z,70.45
2022-10-26T19:04:03.099Z,70.19
2022-10-26T19:06:32.725Z,70.90
2022-10-26T19:09:01.402Z,70.32
2022-10-26T19:11:31.829Z,70.11
2022-10-26T19:13:59.963Z,69.71
2022-10-26T19:16:46.704Z,70.10
2022-10-26T19:19:17.769Z,70.24
2022-10-26T19:21:46.315Z,70.08
2022-10-26T19:24:16.887Z,70.23
2022-10-26T19:26:45.066Z,71.17
2022-10-26T19:29:15.313Z,70.86
2022-10-26T19:31:44.866Z,70.59
2022-10-26T19:34:14.261Z,70.73
2022-10-26T19:36:45.013Z,71.15
2022-10-26T19:39:14.348Z,70.74
2022-10-26T19:41:42.224Z,71.32
2022-10-26T19:44:11.780Z,71.15
2022-10-26T19:46:39.863Z,71.42
2022-10-26T19:49:08.048Z,71.38
2022-10-26T19:51:36.079Z,71.52
2022-10-26T19:54:07.067Z,72.87
2022-10-26T19:56:35.973Z,72.49
2022-10-26T19:59:03.940Z,72.76
2022-10-26T20:01:31.822Z,72.95
2022-10-26T20:04:02.253Z,72.27
2022-10-26T20:06:30.812Z,72.75
2022-10-26T20:08:59.851Z,72.72
2022-10-26T20:11:31.958Z,72.88
2022-10-26T20:13:59.814Z,72.91
2022-10-26T20:16:28.121Z,73.32
2022-10-26T20:18:56.016Z,73.37
2022-10-26T20:21:23.835Z,73.63
2022-10-26T20:23:51.735Z,73.91
2022-10-26T20:26:20.829Z,74.12
2022-10-26T20:28:51.908Z,74.46
2022-10-26T20:31:20.130Z,74.25
2022-10-26T20:33:51.677Z,74.40
2022-10-26T20:36:19.582Z,74.53
2022-10-26T20:38:47.983Z,74.94
2022-10-26T20:41:16.444Z,75.25
2022-10-26T20:43:44.895Z,75.52
2022-10-26T20:46:22.210Z,75.25
2022-10-26T20:48:51.082Z,75.47
2022-10-26T20:51:23.903Z,76.00
2022-10-26T20:54:02.535Z,75.87
2022-10-26T20:56:30.831Z,76.45
2022-10-26T20:59:01.476Z,76.15
2022-10-26T21:01:33.111Z,76.02
2022-10-26T21:04:03.339Z,76.07
2022-10-26T21:06:39.732Z,76.35
2022-10-26T21:09:08.294Z,77.54
2022-10-26T21:11:36.355Z,76.92
2022-10-26T21:14:05.353Z,76.66
2022-10-26T21:16:34.596Z,77.14
2022-10-26T21:19:04.891Z,76.64
2022-10-26T21:21:32.820Z,76.91
2022-10-26T21:24:00.774Z,76.71
2022-10-26T21:26:28.641Z,77.39
2022-10-26T21:28:56.468Z,76.86
2022-10-26T21:31:24.452Z,76.42
2022-10-26T21:33:53.639Z,77.02
2022-10-26T21:36:21.864Z,77.02
2022-10-26T21:38:49.726Z,76.76
2022-10-26T21:41:19.618Z,77.10
2022-10-26T21:43:59.043Z,77.74
2022-10-26T21:46:37.529Z,77.18
2022-10-26T21:49:06.880Z,77.59
2022-10-26T21:51:35.976Z,78.56
2022-10-26T21:54:04.011Z,77.92
2022-10-26T21:56:31.862Z,78.32
2022-10-26T21:59:00.617Z,77.87
2022-10-26T22:01:28.496Z,78.45
2022-10-26T22:03:56.420Z,78.13
2022-10-26T22:06:25.727Z,77.75
2022-10-26T22:08:53.981Z,77.98
2022-10-26T22:11:23.814Z,77.89
2022-10-26T22:13:52.803Z,77.92
2022-10-26T22:16:23.344Z,77.68
2022-10-26T22:18:53.301Z,77.62
2022-10-26T22:21:22.854Z,78.29
2022-10-26T22:23:52.212Z,78.39
2022-10-26T22:26:22.052Z,77.88
2022-10-26T22:28:52.128Z,78.14
2022-10-26T22:31:22.896Z,78.71
2022-10-26T22:33:54.641Z,79.58
2022-10-26T22:36:23.668Z,79.18
2022-10-26T22:38:53.532Z,78.90
2022-10-26T22:41:22.831Z,79.10
2022-10-26T22:43:51.746Z,79.45
2022-10-26T22:46:22.109Z,79.57
2022-10-26T22:48:54.497Z,79.40
2022-10-26T22:51:23.809Z,79.34
2022-10-26T22:53:54.345Z,79.54
2022-10-26T22:56:24.111Z,78.96
2022-10-26T22:58:53.014Z,78.68
2022-10-26T23:01:23.196Z,78.49
2022-10-26T23:03:51.277Z,78.89
2022-10-26T23:06:20.687Z,79.25
2022-10-26T23:08:48.546Z,79.56
2022-10-26T23:11:20.036Z,79.44
2022-10-26T23:13:48.207Z,79.54
2022-10-26T23:16:17.930Z,79.82
2022-10-26T23:18:45.803Z,79.97
2022-10-26T23:21:15.406Z,79.58
2022-10-26T23:23:43.602Z,79.36
2022-10-26T23:26:13.568Z,80.12
2022-10-26T23:28:43.774Z,80.39
2022-10-26T23:31:16.554Z,80.34
2022-10-26T23:33:44.493Z,79.97
2022-10-26T23:36:12.367Z,80.72
2022-10-26T23:38:40.177Z,80.66
2022-10-26T23:41:10.826Z,80.39
2022-10-26T23:43:42.208Z,80.23
2022-10-26T23:46:10.485Z,80.42
2022-10-26T23:48:38.435Z,80.43
2022-10-26T23:51:06.375Z,80.52
2022-10-26T23:53:34.398Z,80.32
2022-10-26T23:56:02.571Z,79.77
2022-10-26T23:58:30.416Z,80.54
